sensor_id;sensor_type;location;lat;lon;timestamp;temperature;humidity
7014;DHT22;3547;50.774;12.918;2023-02-26T00:02:25;-1.90;8.50
7014;DHT22;3547;50.774;12.918;2023-02-26T00:04:51;-1.80;11.10
7014;DHT22;3547;50.774;12.918;2023-02-26T00:07:17;-1.90;1.00
7014;DHT22;3547;50.774;12.918;2023-02-26T00:09:43;-1.90;14.10
7014;DHT22;3547;50.774;12.918;2023-02-26T00:12:10;-1.90;10.90
7014;DHT22;3547;50.774;12.918;2023-02-26T00:14:37;-1.80;19.50
7014;DHT22;3547;50.774;12.918;2023-02-26T00:19:48;-1.70;14.70
7014;DHT22;3547;50.774;12.918;2023-02-26T00:22:14;-1.70;12.40
7014;DHT22;3547;50.774;12.918;2023-02-26T00:24:41;-1.80;4.60
7014;DHT22;3547;50.774;12.918;2023-02-26T00:27:09;-1.80;3.50
7014;DHT22;3547;50.774;12.918;2023-02-26T00:29:36;-1.90;5.40
7014;DHT22;3547;50.774;12.918;2023-02-26T00:32:03;-2.00;8.80
7014;DHT22;3547;50.774;12.918;2023-02-26T00:34:29;-1.90;21.30
7014;DHT22;3547;50.774;12.918;2023-02-26T00:42:16;-1.70;18.10
7014;DHT22;3547;50.774;12.918;2023-02-26T00:44:42;-2.00;1.00
7014;DHT22;3547;50.774;12.918;2023-02-26T00:47:18;-1.90;5.40
7014;DHT22;3547;50.774;12.918;2023-02-26T00:53:09;-1.80;12.70
7014;DHT22;3547;50.774;12.918;2023-02-26T00:55:38;-1.70;11.30
7014;DHT22;3547;50.774;12.918;2023-02-26T00:58:04;-1.60;13.50
7014;DHT22;3547;50.774;12.918;2023-02-26T01:00:30;-1.70;1.00
7014;DHT22;3547;50.774;12.918;2023-02-26T01:02:57;-1.70;1.00
7014;DHT22;3547;50.774;12.918;2023-02-26T01:05:23;-1.60;2.50
7014;DHT22;3547;50.774;12.918;2023-02-26T01:08:23;-1.70;1.00
7014;DHT22;3547;50.774;12.918;2023-02-26T01:10:53;-1.60;1.00
7014;DHT22;3547;50.774;12.918;2023-02-26T01:13:19;-1.80;1.00
7014;DHT22;3547;50.774;12.918;2023-02-26T01:15:51;-1.90;1.00
7014;DHT22;3547;50.774;12.918;2023-02-26T01:18:42;-1.80;1.00
7014;DHT22;3547;50.774;12.918;2023-02-26T01:21:13;-1.80;1.00
7014;DHT22;3547;50.774;12.918;2023-02-26T01:23:44;-1.80;1.00
7014;DHT22;3547;50.774;12.918;2023-02-26T01:26:20;-1.90;1.00
7014;DHT22;3547;50.774;12.918;2023-02-26T01:28:47;-1.90;1.00
7014;DHT22;3547;50.774;12.918;2023-02-26T01:34:08;-1.90;1.00
7014;DHT22;3547;50.774;12.918;2023-02-26T01:36:44;-2.00;1.00
7014;DHT22;3547;50.774;12.918;2023-02-26T01:39:23;-2.00;1.00
7014;DHT22;3547;50.774;12.918;2023-02-26T01:41:51;-1.90;8.70
7014;DHT22;3547;50.774;12.918;2023-02-26T01:44:26;-2.00;3.00
7014;DHT22;3547;50.774;12.918;2023-02-26T01:47:15;-1.80;14.50
7014;DHT22;3547;50.774;12.918;2023-02-26T01:49:42;-1.70;12.20
7014;DHT22;3547;50.774;12.918;2023-02-26T01:53:15;-1.60;11.80
7014;DHT22;3547;50.774;12.918;2023-02-26T01:55:23;-1.80;4.60
7014;DHT22;3547;50.774;12.918;2023-02-26T01:57:52;-1.70;7.50
7014;DHT22;3547;50.774;12.918;2023-02-26T02:00:20;-1.80;8.50
7014;DHT22;3547;50.774;12.918;2023-02-26T02:02:48;-1.70;12.10
7014;DHT22;3547;50.774;12.918;2023-02-26T02:05:21;-1.70;10.70
7014;DHT22;3547;50.774;12.918;2023-02-26T02:07:50;-1.80;14.50
7014;DHT22;3547;50.774;12.918;2023-02-26T02:10:16;-1.90;7.40
7014;DHT22;3547;50.774;12.918;2023-02-26T02:13:08;-1.90;15.10
7014;DHT22;3547;50.774;12.918;2023-02-26T02:15:39;-1.90;13.10
7014;DHT22;3547;50.774;12.918;2023-02-26T02:18:29;-1.80;19.90
7014;DHT22;3547;50.774;12.918;2023-02-26T02:35:23;-1.40;25.90
7014;DHT22;3547;50.774;12.918;2023-02-26T02:37:55;-1.30;22.50
7014;DHT22;3547;50.774;12.918;2023-02-26T02:40:30;-1.30;17.40
7014;DHT22;3547;50.774;12.918;2023-02-26T02:43:13;-1.50;4.90
7014;DHT22;3547;50.774;12.918;2023-02-26T02:46:06;-1.40;10.50
7014;DHT22;3547;50.774;12.918;2023-02-26T02:48:44;-1.40;8.20
7014;DHT22;3547;50.774;12.918;2023-02-26T02:53:46;-1.70;1.00
7014;DHT22;3547;50.774;12.918;2023-02-26T02:56:31;-1.60;11.40
7014;DHT22;3547;50.774;12.918;2023-02-26T03:02:13;-1.50;12.80
7014;DHT22;3547;50.774;12.918;2023-02-26T03:04:41;-1.40;9.00
7014;DHT22;3547;50.774;12.918;2023-02-26T03:07:09;-1.40;9.20
7014;DHT22;3547;50.774;12.918;2023-02-26T03:09:35;-1.30;10.30
7014;DHT22;3547;50.774;12.918;2023-02-26T03:12:01;-1.40;5.40
7014;DHT22;3547;50.774;12.918;2023-02-26T03:14:28;-1.30;9.60
7014;DHT22;3547;50.774;12.918;2023-02-26T03:25:28;-1.40;4.30
7014;DHT22;3547;50.774;12.918;2023-02-26T03:28:10;-1.30;14.20
7014;DHT22;3547;50.774;12.918;2023-02-26T03:33:42;-1.30;6.90
7014;DHT22;3547;50.774;12.918;2023-02-26T03:36:26;-1.30;9.30
7014;DHT22;3547;50.774;12.918;2023-02-26T03:44:32;-1.30;8.90
7014;DHT22;3547;50.774;12.918;2023-02-26T03:47:06;-1.30;7.80
7014;DHT22;3547;50.774;12.918;2023-02-26T03:49:48;-1.30;8.60
7014;DHT22;3547;50.774;12.918;2023-02-26T03:52:17;-1.30;8.60
7014;DHT22;3547;50.774;12.918;2023-02-26T03:54:58;-1.20;12.20
7014;DHT22;3547;50.774;12.918;2023-02-26T03:57:25;-1.20;12.40
7014;DHT22;3547;50.774;12.918;2023-02-26T03:59:52;-1.20;12.00
7014;DHT22;3547;50.774;12.918;2023-02-26T04:04:53;-1.30;8.00
7014;DHT22;3547;50.774;12.918;2023-02-26T04:07:20;-1.30;13.60
7014;DHT22;3547;50.774;12.918;2023-02-26T04:09:49;-1.40;9.80
7014;DHT22;3547;50.774;12.918;2023-02-26T04:12:21;-1.40;15.20
7014;DHT22;3547;50.774;12.918;2023-02-26T04:14:47;-1.40;15.50
7014;DHT22;3547;50.774;12.918;2023-02-26T04:17:14;-1.30;15.20
7014;DHT22;3547;50.774;12.918;2023-02-26T04:19:40;-1.50;8.50
7014;DHT22;3547;50.774;12.918;2023-02-26T04:22:06;-1.50;18.40
7014;DHT22;3547;50.774;12.918;2023-02-26T04:24:32;-1.50;20.50
7014;DHT22;3547;50.774;12.918;2023-02-26T04:26:58;-1.40;19.40
7014;DHT22;3547;50.774;12.918;2023-02-26T04:29:24;-1.40;17.10
7014;DHT22;3547;50.774;12.918;2023-02-26T04:31:50;-1.40;11.40
7014;DHT22;3547;50.774;12.918;2023-02-26T04:34:17;-1.40;18.00
7014;DHT22;3547;50.774;12.918;2023-02-26T04:36:43;-1.30;17.60
7014;DHT22;3547;50.774;12.918;2023-02-26T04:39:09;-1.20;16.00
7014;DHT22;3547;50.774;12.918;2023-02-26T04:41:36;-1.20;14.10
7014;DHT22;3547;50.774;12.918;2023-02-26T04:44:03;-1.30;8.80
7014;DHT22;3547;50.774;12.918;2023-02-26T04:46:30;-1.30;11.90
7014;DHT22;3547;50.774;12.918;2023-02-26T04:48:56;-1.50;8.80
7014;DHT22;3547;50.774;12.918;2023-02-26T04:51:22;-1.40;20.40
7014;DHT22;3547;50.774;12.918;2023-02-26T04:53:48;-1.30;18.10
7014;DHT22;3547;50.774;12.918;2023-02-26T04:56:15;-1.20;18.80
7014;DHT22;3547;50.774;12.918;2023-02-26T04:58:41;-1.30;10.80
7014;DHT22;3547;50.774;12.918;2023-02-26T05:01:07;-1.50;25.10
7014;DHT22;3547;50.774;12.918;2023-02-26T05:03:33;-1.30;22.50
7014;DHT22;3547;50.774;12.918;2023-02-26T05:05:59;-1.40;16.90
7014;DHT22;3547;50.774;12.918;2023-02-26T05:08:26;-1.40;20.90
7014;DHT22;3547;50.774;12.918;2023-02-26T05:10:52;-1.40;13.40
7014;DHT22;3547;50.774;12.918;2023-02-26T05:13:19;-1.30;23.50
7014;DHT22;3547;50.774;12.918;2023-02-26T05:19:08;-1.30;22.40
7014;DHT22;3547;50.774;12.918;2023-02-26T05:21:34;-1.30;21.60
7014;DHT22;3547;50.774;12.918;2023-02-26T05:24:00;-1.40;16.70
7014;DHT22;3547;50.774;12.918;2023-02-26T05:26:26;-1.40;22.60
7014;DHT22;3547;50.774;12.918;2023-02-26T05:28:53;-1.30;19.20
7014;DHT22;3547;50.774;12.918;2023-02-26T05:31:19;-1.40;18.50
7014;DHT22;3547;50.774;12.918;2023-02-26T05:33:45;-1.40;21.60
7014;DHT22;3547;50.774;12.918;2023-02-26T05:36:11;-1.30;20.60
7014;DHT22;3547;50.774;12.918;2023-02-26T05:38:37;-1.40;16.90
7014;DHT22;3547;50.774;12.918;2023-02-26T05:41:04;-1.40;21.90
7014;DHT22;3547;50.774;12.918;2023-02-26T05:43:30;-1.30;26.70
7014;DHT22;3547;50.774;12.918;2023-02-26T05:45:56;-1.20;20.60
7014;DHT22;3547;50.774;12.918;2023-02-26T05:48:23;-1.30;15.70
7014;DHT22;3547;50.774;12.918;2023-02-26T05:50:49;-1.20;18.70
7014;DHT22;3547;50.774;12.918;2023-02-26T05:53:16;-1.20;23.50
7014;DHT22;3547;50.774;12.918;2023-02-26T05:55:46;-1.10;20.00
7014;DHT22;3547;50.774;12.918;2023-02-26T05:58:13;-1.20;15.40
7014;DHT22;3547;50.774;12.918;2023-02-26T06:00:40;-1.20;16.40
7014;DHT22;3547;50.774;12.918;2023-02-26T06:03:06;-1.20;17.60
7014;DHT22;3547;50.774;12.918;2023-02-26T06:05:32;-1.20;13.60
7014;DHT22;3547;50.774;12.918;2023-02-26T06:08:01;-1.10;17.40
7014;DHT22;3547;50.774;12.918;2023-02-26T06:10:27;-1.10;13.50
7014;DHT22;3547;50.774;12.918;2023-02-26T06:12:54;-1.10;16.00
7014;DHT22;3547;50.774;12.918;2023-02-26T06:15:20;-1.00;16.70
7014;DHT22;3547;50.774;12.918;2023-02-26T06:17:46;-1.10;11.90
7014;DHT22;3547;50.774;12.918;2023-02-26T06:20:12;-1.00;13.70
7014;DHT22;3547;50.774;12.918;2023-02-26T06:22:38;-1.00;14.10
7014;DHT22;3547;50.774;12.918;2023-02-26T06:25:05;-1.00;10.50
7014;DHT22;3547;50.774;12.918;2023-02-26T06:27:31;-1.00;12.50
7014;DHT22;3547;50.774;12.918;2023-02-26T06:29:57;-1.00;9.10
7014;DHT22;3547;50.774;12.918;2023-02-26T06:32:23;-1.10;2.20
7014;DHT22;3547;50.774;12.918;2023-02-26T06:34:49;-1.00;11.20
7014;DHT22;3547;50.774;12.918;2023-02-26T06:37:15;-0.90;15.50
7014;DHT22;3547;50.774;12.918;2023-02-26T06:39:41;-0.80;3.80
7014;DHT22;3547;50.774;12.918;2023-02-26T06:42:08;-0.90;11.00
7014;DHT22;3547;50.774;12.918;2023-02-26T06:44:34;-0.80;14.20
7014;DHT22;3547;50.774;12.918;2023-02-26T06:47:00;-0.80;8.30
7014;DHT22;3547;50.774;12.918;2023-02-26T06:49:26;-0.80;11.80
7014;DHT22;3547;50.774;12.918;2023-02-26T06:51:52;-0.80;11.10
7014;DHT22;3547;50.774;12.918;2023-02-26T06:54:18;-0.70;12.90
7014;DHT22;3547;50.774;12.918;2023-02-26T06:56:45;-0.70;6.40
7014;DHT22;3547;50.774;12.918;2023-02-26T06:59:11;-0.70;1.60
7014;DHT22;3547;50.774;12.918;2023-02-26T07:01:37;-0.80;2.10
7014;DHT22;3547;50.774;12.918;2023-02-26T07:04:04;-0.80;3.10
7014;DHT22;3547;50.774;12.918;2023-02-26T07:06:30;-0.60;13.90
7014;DHT22;3547;50.774;12.918;2023-02-26T07:08:56;-0.70;1.00
7014;DHT22;3547;50.774;12.918;2023-02-26T07:11:22;-0.70;10.30
7014;DHT22;3547;50.774;12.918;2023-02-26T07:13:48;-0.60;11.10
7014;DHT22;3547;50.774;12.918;2023-02-26T07:16:16;-0.60;1.10
7014;DHT22;3547;50.774;12.918;2023-02-26T07:18:42;-0.50;14.50
7014;DHT22;3547;50.774;12.918;2023-02-26T07:21:08;-0.50;11.90
7014;DHT22;3547;50.774;12.918;2023-02-26T07:23:34;-0.50;10.20
7014;DHT22;3547;50.774;12.918;2023-02-26T07:26:00;-0.40;2.50
7014;DHT22;3547;50.774;12.918;2023-02-26T07:28:27;-0.40;3.90
7014;DHT22;3547;50.774;12.918;2023-02-26T07:30:54;-0.40;2.90
7014;DHT22;3547;50.774;12.918;2023-02-26T07:33:21;-0.40;1.00
7014;DHT22;3547;50.774;12.918;2023-02-26T07:35:47;-0.30;3.70
7014;DHT22;3547;50.774;12.918;2023-02-26T07:38:14;-0.40;1.00
7014;DHT22;3547;50.774;12.918;2023-02-26T07:40:40;-0.30;1.00
7014;DHT22;3547;50.774;12.918;2023-02-26T07:43:06;-0.40;1.00
7014;DHT22;3547;50.774;12.918;2023-02-26T07:45:32;-0.40;1.00
7014;DHT22;3547;50.774;12.918;2023-02-26T07:47:58;-0.40;1.00
7014;DHT22;3547;50.774;12.918;2023-02-26T07:50:24;-0.40;1.00
7014;DHT22;3547;50.774;12.918;2023-02-26T07:52:51;-0.40;1.00
7014;DHT22;3547;50.774;12.918;2023-02-26T07:55:19;-0.30;1.00
7014;DHT22;3547;50.774;12.918;2023-02-26T07:57:45;-0.20;1.00
7014;DHT22;3547;50.774;12.918;2023-02-26T08:00:12;-0.20;1.00
7014;DHT22;3547;50.774;12.918;2023-02-26T08:02:39;-0.10;1.00
7014;DHT22;3547;50.774;12.918;2023-02-26T08:05:05;0.00;1.00
7014;DHT22;3547;50.774;12.918;2023-02-26T08:07:32;-0.10;1.00
7014;DHT22;3547;50.774;12.918;2023-02-26T08:09:59;0.00;1.00
7014;DHT22;3547;50.774;12.918;2023-02-26T08:12:25;0.30;1.00
7014;DHT22;3547;50.774;12.918;2023-02-26T08:14:51;0.20;1.00
7014;DHT22;3547;50.774;12.918;2023-02-26T08:17:17;0.30;1.00
7014;DHT22;3547;50.774;12.918;2023-02-26T08:19:43;0.40;1.00
7014;DHT22;3547;50.774;12.918;2023-02-26T08:22:09;0.40;1.00
7014;DHT22;3547;50.774;12.918;2023-02-26T08:24:35;0.30;1.00
7014;DHT22;3547;50.774;12.918;2023-02-26T08:27:02;0.60;1.00
7014;DHT22;3547;50.774;12.918;2023-02-26T08:29:28;0.80;1.00
7014;DHT22;3547;50.774;12.918;2023-02-26T08:31:54;0.80;1.00
7014;DHT22;3547;50.774;12.918;2023-02-26T08:34:20;0.60;1.00
7014;DHT22;3547;50.774;12.918;2023-02-26T08:36:46;0.70;1.00
7014;DHT22;3547;50.774;12.918;2023-02-26T08:39:12;0.80;1.00
7014;DHT22;3547;50.774;12.918;2023-02-26T08:41:38;1.00;1.00
7014;DHT22;3547;50.774;12.918;2023-02-26T08:44:04;0.60;1.00
7014;DHT22;3547;50.774;12.918;2023-02-26T08:46:31;0.70;1.00
7014;DHT22;3547;50.774;12.918;2023-02-26T08:48:57;1.10;1.00
7014;DHT22;3547;50.774;12.918;2023-02-26T08:51:23;1.00;1.00
7014;DHT22;3547;50.774;12.918;2023-02-26T08:53:49;1.30;1.00
7014;DHT22;3547;50.774;12.918;2023-02-26T08:56:16;1.50;1.00
7014;DHT22;3547;50.774;12.918;2023-02-26T08:58:43;1.60;1.00
7014;DHT22;3547;50.774;12.918;2023-02-26T09:01:10;1.90;1.00
7014;DHT22;3547;50.774;12.918;2023-02-26T09:03:37;1.40;1.00
7014;DHT22;3547;50.774;12.918;2023-02-26T09:06:04;1.70;1.00
7014;DHT22;3547;50.774;12.918;2023-02-26T09:08:31;2.00;1.00
7014;DHT22;3547;50.774;12.918;2023-02-26T09:11:00;2.10;1.00
7014;DHT22;3547;50.774;12.918;2023-02-26T09:13:27;2.30;1.00
7014;DHT22;3547;50.774;12.918;2023-02-26T09:15:54;2.40;1.00
7014;DHT22;3547;50.774;12.918;2023-02-26T09:18:21;2.70;1.00
7014;DHT22;3547;50.774;12.918;2023-02-26T09:20:47;2.60;1.00
7014;DHT22;3547;50.774;12.918;2023-02-26T09:23:14;2.60;1.00
7014;DHT22;3547;50.774;12.918;2023-02-26T09:25:40;2.40;1.00
7014;DHT22;3547;50.774;12.918;2023-02-26T09:28:06;2.90;1.00
7014;DHT22;3547;50.774;12.918;2023-02-26T09:30:33;3.10;1.00
7014;DHT22;3547;50.774;12.918;2023-02-26T09:32:59;2.40;1.00
7014;DHT22;3547;50.774;12.918;2023-02-26T09:35:25;2.60;1.00
7014;DHT22;3547;50.774;12.918;2023-02-26T09:37:51;2.60;1.00
7014;DHT22;3547;50.774;12.918;2023-02-26T09:52:01;3.30;1.00
7014;DHT22;3547;50.774;12.918;2023-02-26T09:54:35;3.60;1.00
7014;DHT22;3547;50.774;12.918;2023-02-26T09:57:08;3.50;1.00
7014;DHT22;3547;50.774;12.918;2023-02-26T09:59:36;3.00;1.00
7014;DHT22;3547;50.774;12.918;2023-02-26T10:05:27;3.30;1.00
7014;DHT22;3547;50.774;12.918;2023-02-26T10:08:13;3.30;1.00
7014;DHT22;3547;50.774;12.918;2023-02-26T10:11:03;3.40;1.00
7014;DHT22;3547;50.774;12.918;2023-02-26T10:13:45;3.00;1.00
7014;DHT22;3547;50.774;12.918;2023-02-26T10:19:39;3.10;1.00
7014;DHT22;3547;50.774;12.918;2023-02-26T10:22:32;2.50;1.00
7014;DHT22;3547;50.774;12.918;2023-02-26T10:25:05;2.70;1.00
7014;DHT22;3547;50.774;12.918;2023-02-26T10:27:46;2.40;1.00
7014;DHT22;3547;50.774;12.918;2023-02-26T10:30:39;2.50;1.00
7014;DHT22;3547;50.774;12.918;2023-02-26T10:36:18;2.40;1.00
7014;DHT22;3547;50.774;12.918;2023-02-26T10:38:52;1.90;1.00
7014;DHT22;3547;50.774;12.918;2023-02-26T10:47:48;2.30;1.00
7014;DHT22;3547;50.774;12.918;2023-02-26T10:50:20;2.90;1.00
7014;DHT22;3547;50.774;12.918;2023-02-26T10:52:48;3.20;1.00
7014;DHT22;3547;50.774;12.918;2023-02-26T10:55:42;3.20;1.00
7014;DHT22;3547;50.774;12.918;2023-02-26T10:58:36;3.30;1.00
7014;DHT22;3547;50.774;12.918;2023-02-26T11:01:06;3.50;1.00
7014;DHT22;3547;50.774;12.918;2023-02-26T11:03:42;3.70;1.00
7014;DHT22;3547;50.774;12.918;2023-02-26T11:06:18;3.50;1.00
7014;DHT22;3547;50.774;12.918;2023-02-26T11:08:48;3.60;1.00
7014;DHT22;3547;50.774;12.918;2023-02-26T11:14:08;2.80;1.00
7014;DHT22;3547;50.774;12.918;2023-02-26T11:16:41;3.10;1.00
7014;DHT22;3547;50.774;12.918;2023-02-26T11:19:08;3.40;1.00
7014;DHT22;3547;50.774;12.918;2023-02-26T11:21:39;3.50;1.00
7014;DHT22;3547;50.774;12.918;2023-02-26T11:24:20;3.20;1.00
7014;DHT22;3547;50.774;12.918;2023-02-26T11:26:49;3.40;1.00
7014;DHT22;3547;50.774;12.918;2023-02-26T11:29:20;3.20;1.00
7014;DHT22;3547;50.774;12.918;2023-02-26T11:31:51;3.20;1.00
7014;DHT22;3547;50.774;12.918;2023-02-26T11:34:22;3.20;1.00
7014;DHT22;3547;50.774;12.918;2023-02-26T11:36:49;3.30;1.00
7014;DHT22;3547;50.774;12.918;2023-02-26T11:39:33;3.30;1.00
7014;DHT22;3547;50.774;12.918;2023-02-26T11:42:00;3.30;1.00
7014;DHT22;3547;50.774;12.918;2023-02-26T11:44:40;3.40;1.00
7014;DHT22;3547;50.774;12.918;2023-02-26T11:47:31;2.40;1.00
7014;DHT22;3547;50.774;12.918;2023-02-26T11:50:01;2.80;1.00
7014;DHT22;3547;50.774;12.918;2023-02-26T11:52:42;2.80;1.00
7014;DHT22;3547;50.774;12.918;2023-02-26T11:57:52;2.50;1.00
7014;DHT22;3547;50.774;12.918;2023-02-26T12:00:35;2.50;1.00
7014;DHT22;3547;50.774;12.918;2023-02-26T12:03:06;2.60;1.00
7014;DHT22;3547;50.774;12.918;2023-02-26T12:05:36;2.60;1.00
7014;DHT22;3547;50.774;12.918;2023-02-26T12:08:12;2.90;1.00
7014;DHT22;3547;50.774;12.918;2023-02-26T12:10:48;3.00;1.00
7014;DHT22;3547;50.774;12.918;2023-02-26T12:13:30;3.20;1.00
7014;DHT22;3547;50.774;12.918;2023-02-26T12:22:02;4.00;1.00
7014;DHT22;3547;50.774;12.918;2023-02-26T12:25:07;4.00;1.00
7014;DHT22;3547;50.774;12.918;2023-02-26T12:30:12;3.00;1.00
7014;DHT22;3547;50.774;12.918;2023-02-26T12:33:02;2.70;1.00
7014;DHT22;3547;50.774;12.918;2023-02-26T12:38:44;1.90;1.00
7014;DHT22;3547;50.774;12.918;2023-02-26T12:41:27;2.10;1.00
7014;DHT22;3547;50.774;12.918;2023-02-26T12:44:01;2.00;1.00
7014;DHT22;3547;50.774;12.918;2023-02-26T12:46:42;2.20;1.00
7014;DHT22;3547;50.774;12.918;2023-02-26T12:57:26;3.20;1.00
7014;DHT22;3547;50.774;12.918;2023-02-26T13:00:32;3.10;1.00
7014;DHT22;3547;50.774;12.918;2023-02-26T13:17:49;3.80;1.00
7014;DHT22;3547;50.774;12.918;2023-02-26T13:20:24;3.70;1.00
7014;DHT22;3547;50.774;12.918;2023-02-26T13:23:11;4.00;1.00
7014;DHT22;3547;50.774;12.918;2023-02-26T13:26:00;4.00;1.00
7014;DHT22;3547;50.774;12.918;2023-02-26T13:30:58;4.20;1.00
7014;DHT22;3547;50.774;12.918;2023-02-26T13:33:29;4.30;1.00
7014;DHT22;3547;50.774;12.918;2023-02-26T13:35:56;3.90;1.00
7014;DHT22;3547;50.774;12.918;2023-02-26T13:41:26;4.30;1.00
7014;DHT22;3547;50.774;12.918;2023-02-26T13:46:35;4.40;1.00
7014;DHT22;3547;50.774;12.918;2023-02-26T13:51:52;4.30;1.00
7014;DHT22;3547;50.774;12.918;2023-02-26T14:01:49;4.90;1.00
7014;DHT22;3547;50.774;12.918;2023-02-26T14:19:36;4.50;1.00
7014;DHT22;3547;50.774;12.918;2023-02-26T14:27:39;4.40;1.00
7014;DHT22;3547;50.774;12.918;2023-02-26T14:35:23;4.20;1.00
7014;DHT22;3547;50.774;12.918;2023-02-26T14:37:59;4.20;1.00
7014;DHT22;3547;50.774;12.918;2023-02-26T14:40:31;4.10;1.00
7014;DHT22;3547;50.774;12.918;2023-02-26T14:43:01;4.00;1.00
7014;DHT22;3547;50.774;12.918;2023-02-26T14:45:36;4.00;1.00
7014;DHT22;3547;50.774;12.918;2023-02-26T14:48:05;3.80;1.00
7014;DHT22;3547;50.774;12.918;2023-02-26T14:50:43;3.60;1.00
7014;DHT22;3547;50.774;12.918;2023-02-26T15:02:08;3.40;1.00
7014;DHT22;3547;50.774;12.918;2023-02-26T15:23:57;3.00;1.00
7014;DHT22;3547;50.774;12.918;2023-02-26T15:26:33;2.80;1.00
7014;DHT22;3547;50.774;12.918;2023-02-26T15:29:03;2.70;1.00
7014;DHT22;3547;50.774;12.918;2023-02-26T15:31:35;2.60;1.00
7014;DHT22;3547;50.774;12.918;2023-02-26T15:34:02;2.40;1.00
7014;DHT22;3547;50.774;12.918;2023-02-26T15:36:29;1.80;1.00
7014;DHT22;3547;50.774;12.918;2023-02-26T15:39:00;1.60;1.00
7014;DHT22;3547;50.774;12.918;2023-02-26T15:41:30;1.80;1.00
7014;DHT22;3547;50.774;12.918;2023-02-26T15:44:08;1.70;1.00
7014;DHT22;3547;50.774;12.918;2023-02-26T15:46:41;1.70;1.00
7014;DHT22;3547;50.774;12.918;2023-02-26T15:49:12;1.70;1.00
7014;DHT22;3547;50.774;12.918;2023-02-26T15:51:41;1.70;1.00
7014;DHT22;3547;50.774;12.918;2023-02-26T15:54:15;1.80;1.00
7014;DHT22;3547;50.774;12.918;2023-02-26T15:56:42;1.60;1.00
7014;DHT22;3547;50.774;12.918;2023-02-26T15:59:16;1.60;1.00
7014;DHT22;3547;50.774;12.918;2023-02-26T16:01:43;1.60;1.00
7014;DHT22;3547;50.774;12.918;2023-02-26T16:04:15;1.60;1.00
7014;DHT22;3547;50.774;12.918;2023-02-26T16:07:09;1.50;1.00
7014;DHT22;3547;50.774;12.918;2023-02-26T16:09:40;1.50;1.00
7014;DHT22;3547;50.774;12.918;2023-02-26T16:12:18;1.50;1.00
7014;DHT22;3547;50.774;12.918;2023-02-26T16:14:51;1.50;1.00
7014;DHT22;3547;50.774;12.918;2023-02-26T16:17:32;1.10;1.00
7014;DHT22;3547;50.774;12.918;2023-02-26T16:20:03;0.90;1.00
7014;DHT22;3547;50.774;12.918;2023-02-26T16:23:16;1.00;1.00
7014;DHT22;3547;50.774;12.918;2023-02-26T16:28:11;0.60;1.00
7014;DHT22;3547;50.774;12.918;2023-02-26T16:30:42;0.40;1.00
7014;DHT22;3547;50.774;12.918;2023-02-26T16:33:12;0.30;1.00
7014;DHT22;3547;50.774;12.918;2023-02-26T16:36:03;0.10;1.00
7014;DHT22;3547;50.774;12.918;2023-02-26T16:38:32;-0.20;1.00
7014;DHT22;3547;50.774;12.918;2023-02-26T16:41:08;-0.20;1.00
7014;DHT22;3547;50.774;12.918;2023-02-26T16:46:33;-0.40;1.00
7014;DHT22;3547;50.774;12.918;2023-02-26T16:49:23;-0.50;1.00
7014;DHT22;3547;50.774;12.918;2023-02-26T16:51:50;-0.60;1.00
7014;DHT22;3547;50.774;12.918;2023-02-26T16:54:22;-0.60;1.00
7014;DHT22;3547;50.774;12.918;2023-02-26T16:56:58;-0.60;1.00
7014;DHT22;3547;50.774;12.918;2023-02-26T16:59:28;-0.70;1.00
7014;DHT22;3547;50.774;12.918;2023-02-26T17:02:08;-0.70;1.00
7014;DHT22;3547;50.774;12.918;2023-02-26T17:04:38;-0.70;1.00
7014;DHT22;3547;50.774;12.918;2023-02-26T17:07:14;-0.80;1.00
7014;DHT22;3547;50.774;12.918;2023-02-26T17:09:49;-0.80;1.00
7014;DHT22;3547;50.774;12.918;2023-02-26T17:12:21;-0.70;1.00
7014;DHT22;3547;50.774;12.918;2023-02-26T17:14:54;-0.70;1.00
7014;DHT22;3547;50.774;12.918;2023-02-26T17:17:22;-0.80;1.00
7014;DHT22;3547;50.774;12.918;2023-02-26T17:19:49;-0.80;1.00
7014;DHT22;3547;50.774;12.918;2023-02-26T17:22:20;-0.80;1.00
7014;DHT22;3547;50.774;12.918;2023-02-26T17:24:49;-0.80;1.00
7014;DHT22;3547;50.774;12.918;2023-02-26T17:27:32;-0.80;1.00
7014;DHT22;3547;50.774;12.918;2023-02-26T17:29:59;-0.80;1.00
7014;DHT22;3547;50.774;12.918;2023-02-26T17:32:27;-0.70;1.00
7014;DHT22;3547;50.774;12.918;2023-02-26T17:34:54;-0.70;1.00
7014;DHT22;3547;50.774;12.918;2023-02-26T17:37:22;-0.60;1.00
7014;DHT22;3547;50.774;12.918;2023-02-26T17:39:49;-0.60;1.00
7014;DHT22;3547;50.774;12.918;2023-02-26T17:42:18;-0.60;1.00
7014;DHT22;3547;50.774;12.918;2023-02-26T17:44:46;-0.50;1.00
7014;DHT22;3547;50.774;12.918;2023-02-26T17:47:22;-0.50;1.00
7014;DHT22;3547;50.774;12.918;2023-02-26T17:49:48;-0.60;1.00
7014;DHT22;3547;50.774;12.918;2023-02-26T17:52:15;-0.70;1.00
7014;DHT22;3547;50.774;12.918;2023-02-26T17:54:41;-0.70;1.00
7014;DHT22;3547;50.774;12.918;2023-02-26T17:57:14;-0.80;1.00
7014;DHT22;3547;50.774;12.918;2023-02-26T17:59:40;-0.90;1.00
7014;DHT22;3547;50.774;12.918;2023-02-26T18:02:21;-0.90;1.00
7014;DHT22;3547;50.774;12.918;2023-02-26T18:04:50;-1.00;1.00
7014;DHT22;3547;50.774;12.918;2023-02-26T18:07:17;-1.10;1.00
7014;DHT22;3547;50.774;12.918;2023-02-26T18:09:45;-1.20;1.00
7014;DHT22;3547;50.774;12.918;2023-02-26T18:12:16;-1.30;1.00
7014;DHT22;3547;50.774;12.918;2023-02-26T18:14:43;-1.40;1.00
7014;DHT22;3547;50.774;12.918;2023-02-26T18:17:15;-1.40;1.00
7014;DHT22;3547;50.774;12.918;2023-02-26T18:19:43;-1.50;1.00
7014;DHT22;3547;50.774;12.918;2023-02-26T18:22:15;-1.50;1.00
7014;DHT22;3547;50.774;12.918;2023-02-26T18:24:42;-1.40;1.00
7014;DHT22;3547;50.774;12.918;2023-02-26T18:27:20;-1.40;1.00
7014;DHT22;3547;50.774;12.918;2023-02-26T18:29:47;-1.50;1.00
7014;DHT22;3547;50.774;12.918;2023-02-26T18:32:19;-1.50;1.00
7014;DHT22;3547;50.774;12.918;2023-02-26T18:34:47;-1.60;1.00
7014;DHT22;3547;50.774;12.918;2023-02-26T18:37:17;-1.50;1.00
7014;DHT22;3547;50.774;12.918;2023-02-26T18:39:44;-1.50;1.00
7014;DHT22;3547;50.774;12.918;2023-02-26T18:42:30;-1.40;1.00
7014;DHT22;3547;50.774;12.918;2023-02-26T18:44:58;-1.40;1.00
7014;DHT22;3547;50.774;12.918;2023-02-26T18:47:24;-1.30;1.00
7014;DHT22;3547;50.774;12.918;2023-02-26T18:49:50;-1.30;1.00
7014;DHT22;3547;50.774;12.918;2023-02-26T18:52:17;-1.20;1.00
7014;DHT22;3547;50.774;12.918;2023-02-26T18:54:43;-1.20;1.00
7014;DHT22;3547;50.774;12.918;2023-02-26T18:57:10;-1.20;1.00
7014;DHT22;3547;50.774;12.918;2023-02-26T18:59:36;-1.20;1.00
7014;DHT22;3547;50.774;12.918;2023-02-26T19:02:04;-1.20;1.00
7014;DHT22;3547;50.774;12.918;2023-02-26T19:04:32;-1.10;1.00
7014;DHT22;3547;50.774;12.918;2023-02-26T19:06:58;-1.10;1.00
7014;DHT22;3547;50.774;12.918;2023-02-26T19:09:24;-1.10;1.00
7014;DHT22;3547;50.774;12.918;2023-02-26T19:11:54;-1.10;1.00
7014;DHT22;3547;50.774;12.918;2023-02-26T19:14:21;-1.10;1.00
7014;DHT22;3547;50.774;12.918;2023-02-26T19:16:47;-1.10;1.00
7014;DHT22;3547;50.774;12.918;2023-02-26T19:19:13;-1.00;1.00
7014;DHT22;3547;50.774;12.918;2023-02-26T19:21:39;-1.00;1.00
7014;DHT22;3547;50.774;12.918;2023-02-26T19:24:10;-1.00;1.00
7014;DHT22;3547;50.774;12.918;2023-02-26T19:26:37;-1.10;1.00
7014;DHT22;3547;50.774;12.918;2023-02-26T19:29:05;-1.20;1.00
7014;DHT22;3547;50.774;12.918;2023-02-26T19:31:33;-1.10;1.00
7014;DHT22;3547;50.774;12.918;2023-02-26T19:34:02;-1.20;1.00
7014;DHT22;3547;50.774;12.918;2023-02-26T19:36:29;-1.30;1.00
7014;DHT22;3547;50.774;12.918;2023-02-26T19:38:59;-1.30;1.00
7014;DHT22;3547;50.774;12.918;2023-02-26T19:41:26;-1.30;1.00
7014;DHT22;3547;50.774;12.918;2023-02-26T19:43:52;-1.30;1.00
7014;DHT22;3547;50.774;12.918;2023-02-26T19:46:18;-1.30;1.00
7014;DHT22;3547;50.774;12.918;2023-02-26T19:48:45;-1.20;1.00
7014;DHT22;3547;50.774;12.918;2023-02-26T19:51:11;-1.20;1.00